sensor_id;sensor_type;location;lat;lon;timestamp;P1;durP1;ratioP1;P2;durP2;ratioP2
69053;SDS011;56125;52.242;4.756;2023-08-24T00:02:46;4.47;;;1.67;;
69053;SDS011;56125;52.242;4.756;2023-08-24T00:07:47;3.35;;;1.50;;
69053;SDS011;56125;52.242;4.756;2023-08-24T00:12:48;3.40;;;1.33;;
69053;SDS011;56125;52.242;4.756;2023-08-24T00:17:49;3.00;;;1.50;;
69053;SDS011;56125;52.242;4.756;2023-08-24T00:22:50;2.70;;;1.23;;
69053;SDS011;56125;52.242;4.756;2023-08-24T00:27:52;7.38;;;1.90;;
69053;SDS011;56125;52.242;4.756;2023-08-24T00:32:54;2.80;;;1.50;;
69053;SDS011;56125;52.242;4.756;2023-08-24T00:37:55;3.55;;;1.90;;
69053;SDS011;56125;52.242;4.756;2023-08-24T00:42:56;3.67;;;1.20;;
69053;SDS011;56125;52.242;4.756;2023-08-24T00:47:57;3.28;;;1.40;;
69053;SDS011;56125;52.242;4.756;2023-08-24T00:52:58;4.03;;;1.50;;
69053;SDS011;56125;52.242;4.756;2023-08-24T00:57:59;6.05;;;2.38;;
69053;SDS011;56125;52.242;4.756;2023-08-24T01:03:00;1.83;;;1.40;;
69053;SDS011;56125;52.242;4.756;2023-08-24T01:08:01;4.00;;;1.70;;
69053;SDS011;56125;52.242;4.756;2023-08-24T01:13:09;4.67;;;1.70;;
69053;SDS011;56125;52.242;4.756;2023-08-24T01:18:14;5.07;;;1.58;;
69053;SDS011;56125;52.242;4.756;2023-08-24T01:28:44;4.22;;;1.40;;
69053;SDS011;56125;52.242;4.756;2023-08-24T01:33:46;2.70;;;2.00;;
69053;SDS011;56125;52.242;4.756;2023-08-24T01:38:49;3.95;;;1.33;;
69053;SDS011;56125;52.242;4.756;2023-08-24T01:44:13;3.67;;;1.10;;
69053;SDS011;56125;52.242;4.756;2023-08-24T01:49:18;5.00;;;1.70;;
69053;SDS011;56125;52.242;4.756;2023-08-24T01:54:21;4.33;;;1.50;;
69053;SDS011;56125;52.242;4.756;2023-08-24T01:59:22;3.47;;;1.60;;
69053;SDS011;56125;52.242;4.756;2023-08-24T02:04:23;3.53;;;1.30;;
69053;SDS011;56125;52.242;4.756;2023-08-24T02:09:24;4.30;;;1.48;;
69053;SDS011;56125;52.242;4.756;2023-08-24T02:14:25;2.77;;;1.43;;
69053;SDS011;56125;52.242;4.756;2023-08-24T02:19:26;3.97;;;1.63;;
69053;SDS011;56125;52.242;4.756;2023-08-24T02:24:27;8.53;;;1.50;;
69053;SDS011;56125;52.242;4.756;2023-08-24T02:29:28;2.65;;;1.40;;
69053;SDS011;56125;52.242;4.756;2023-08-24T02:34:30;3.03;;;1.60;;
69053;SDS011;56125;52.242;4.756;2023-08-24T02:39:31;6.22;;;2.10;;
69053;SDS011;56125;52.242;4.756;2023-08-24T02:44:32;5.10;;;2.00;;
69053;SDS011;56125;52.242;4.756;2023-08-24T02:49:33;3.97;;;2.35;;
69053;SDS011;56125;52.242;4.756;2023-08-24T02:54:34;4.13;;;2.40;;
69053;SDS011;56125;52.242;4.756;2023-08-24T02:59:35;5.95;;;2.45;;
69053;SDS011;56125;52.242;4.756;2023-08-24T03:04:37;4.10;;;1.80;;
69053;SDS011;56125;52.242;4.756;2023-08-24T03:09:38;3.97;;;2.00;;
69053;SDS011;56125;52.242;4.756;2023-08-24T03:14:39;3.27;;;2.10;;
69053;SDS011;56125;52.242;4.756;2023-08-24T03:19:40;4.00;;;2.40;;
69053;SDS011;56125;52.242;4.756;2023-08-24T03:24:41;5.47;;;2.27;;
69053;SDS011;56125;52.242;4.756;2023-08-24T03:29:42;3.55;;;2.10;;
69053;SDS011;56125;52.242;4.756;2023-08-24T03:34:43;4.27;;;1.90;;
69053;SDS011;56125;52.242;4.756;2023-08-24T03:39:45;3.15;;;1.83;;
69053;SDS011;56125;52.242;4.756;2023-08-24T03:44:46;3.90;;;2.43;;
69053;SDS011;56125;52.242;4.756;2023-08-24T03:49:47;3.53;;;2.28;;
69053;SDS011;56125;52.242;4.756;2023-08-24T03:54:48;6.23;;;2.40;;
69053;SDS011;56125;52.242;4.756;2023-08-24T03:59:49;2.65;;;1.67;;
69053;SDS011;56125;52.242;4.756;2023-08-24T04:04:50;3.77;;;1.97;;
69053;SDS011;56125;52.242;4.756;2023-08-24T04:09:51;3.63;;;1.58;;
69053;SDS011;56125;52.242;4.756;2023-08-24T04:14:52;4.60;;;1.77;;
69053;SDS011;56125;52.242;4.756;2023-08-24T04:19:53;2.58;;;2.08;;
69053;SDS011;56125;52.242;4.756;2023-08-24T04:24:54;3.10;;;1.93;;
69053;SDS011;56125;52.242;4.756;2023-08-24T04:29:55;3.55;;;2.20;;
69053;SDS011;56125;52.242;4.756;2023-08-24T04:34:56;2.77;;;2.13;;
69053;SDS011;56125;52.242;4.756;2023-08-24T04:39:57;3.85;;;2.13;;
69053;SDS011;56125;52.242;4.756;2023-08-24T04:44:58;3.97;;;1.83;;
69053;SDS011;56125;52.242;4.756;2023-08-24T04:49:59;2.85;;;1.70;;
69053;SDS011;56125;52.242;4.756;2023-08-24T04:55:00;4.87;;;2.20;;
69053;SDS011;56125;52.242;4.756;2023-08-24T05:00:01;4.03;;;2.08;;
69053;SDS011;56125;52.242;4.756;2023-08-24T05:05:05;7.30;;;2.10;;
69053;SDS011;56125;52.242;4.756;2023-08-24T05:10:07;3.83;;;2.40;;
69053;SDS011;56125;52.242;4.756;2023-08-24T05:15:09;4.60;;;2.30;;
69053;SDS011;56125;52.242;4.756;2023-08-24T05:20:10;5.88;;;2.60;;
69053;SDS011;56125;52.242;4.756;2023-08-24T05:25:12;3.53;;;2.33;;
69053;SDS011;56125;52.242;4.756;2023-08-24T05:30:13;6.50;;;3.13;;
69053;SDS011;56125;52.242;4.756;2023-08-24T05:35:14;7.10;;;3.33;;
69053;SDS011;56125;52.242;4.756;2023-08-24T05:40:15;7.03;;;3.50;;
69053;SDS011;56125;52.242;4.756;2023-08-24T05:45:16;7.47;;;3.70;;
69053;SDS011;56125;52.242;4.756;2023-08-24T05:50:17;7.20;;;3.67;;
69053;SDS011;56125;52.242;4.756;2023-08-24T05:55:19;6.40;;;3.60;;
69053;SDS011;56125;52.242;4.756;2023-08-24T06:00:20;7.43;;;4.35;;
69053;SDS011;56125;52.242;4.756;2023-08-24T06:05:22;7.90;;;3.80;;
69053;SDS011;56125;52.242;4.756;2023-08-24T06:10:23;17.05;;;4.10;;
69053;SDS011;56125;52.242;4.756;2023-08-24T06:15:26;11.27;;;4.33;;
69053;SDS011;56125;52.242;4.756;2023-08-24T06:20:28;9.60;;;3.88;;
69053;SDS011;56125;52.242;4.756;2023-08-24T06:25:30;12.43;;;3.97;;
69053;SDS011;56125;52.242;4.756;2023-08-24T06:30:31;8.00;;;3.75;;
69053;SDS011;56125;52.242;4.756;2023-08-24T06:35:37;10.73;;;5.60;;
69053;SDS011;56125;52.242;4.756;2023-08-24T06:40:38;8.73;;;5.10;;
69053;SDS011;56125;52.242;4.756;2023-08-24T06:45:39;7.70;;;4.73;;
69053;SDS011;56125;52.242;4.756;2023-08-24T06:50:41;6.15;;;4.05;;
69053;SDS011;56125;52.242;4.756;2023-08-24T06:55:42;9.87;;;5.60;;
69053;SDS011;56125;52.242;4.756;2023-08-24T07:00:43;10.80;;;5.10;;
69053;SDS011;56125;52.242;4.756;2023-08-24T07:05:45;10.00;;;4.97;;
69053;SDS011;56125;52.242;4.756;2023-08-24T07:10:46;9.30;;;5.00;;
69053;SDS011;56125;52.242;4.756;2023-08-24T07:15:47;11.87;;;5.97;;
69053;SDS011;56125;52.242;4.756;2023-08-24T07:20:48;9.77;;;5.30;;
69053;SDS011;56125;52.242;4.756;2023-08-24T07:25:49;9.73;;;5.43;;
69053;SDS011;56125;52.242;4.756;2023-08-24T07:30:50;12.80;;;6.32;;
69053;SDS011;56125;52.242;4.756;2023-08-24T07:35:56;12.43;;;6.63;;
69053;SDS011;56125;52.242;4.756;2023-08-24T07:40:57;12.73;;;7.15;;
69053;SDS011;56125;52.242;4.756;2023-08-24T07:45:58;13.77;;;6.17;;
69053;SDS011;56125;52.242;4.756;2023-08-24T07:50:59;14.93;;;7.07;;
69053;SDS011;56125;52.242;4.756;2023-08-24T07:56:00;12.60;;;7.27;;
69053;SDS011;56125;52.242;4.756;2023-08-24T08:01:02;10.05;;;6.53;;
69053;SDS011;56125;52.242;4.756;2023-08-24T08:06:03;12.93;;;6.23;;
69053;SDS011;56125;52.242;4.756;2023-08-24T08:11:05;12.15;;;6.00;;
69053;SDS011;56125;52.242;4.756;2023-08-24T08:16:06;8.37;;;5.57;;
69053;SDS011;56125;52.242;4.756;2023-08-24T08:21:08;6.90;;;4.47;;
69053;SDS011;56125;52.242;4.756;2023-08-24T08:26:15;8.67;;;4.70;;
69053;SDS011;56125;52.242;4.756;2023-08-24T08:31:16;10.68;;;4.75;;
69053;SDS011;56125;52.242;4.756;2023-08-24T08:36:17;5.97;;;4.40;;
69053;SDS011;56125;52.242;4.756;2023-08-24T08:41:21;9.68;;;4.57;;
69053;SDS011;56125;52.242;4.756;2023-08-24T08:46:23;6.80;;;4.37;;
69053;SDS011;56125;52.242;4.756;2023-08-24T08:51:24;11.95;;;4.63;;
69053;SDS011;56125;52.242;4.756;2023-08-24T08:56:25;7.33;;;5.03;;
69053;SDS011;56125;52.242;4.756;2023-08-24T09:01:27;10.38;;;4.22;;
69053;SDS011;56125;52.242;4.756;2023-08-24T09:06:28;8.23;;;4.30;;
69053;SDS011;56125;52.242;4.756;2023-08-24T09:11:29;8.63;;;5.50;;
69053;SDS011;56125;52.242;4.756;2023-08-24T09:16:30;11.73;;;5.00;;
69053;SDS011;56125;52.242;4.756;2023-08-24T09:21:36;8.45;;;5.55;;
69053;SDS011;56125;52.242;4.756;2023-08-24T09:26:38;9.77;;;5.10;;
69053;SDS011;56125;52.242;4.756;2023-08-24T09:31:43;10.05;;;4.95;;
69053;SDS011;56125;52.242;4.756;2023-08-24T09:36:44;6.90;;;4.03;;
69053;SDS011;56125;52.242;4.756;2023-08-24T09:41:48;7.20;;;4.35;;
69053;SDS011;56125;52.242;4.756;2023-08-24T09:46:50;11.63;;;4.50;;
69053;SDS011;56125;52.242;4.756;2023-08-24T09:51:51;9.43;;;3.58;;
69053;SDS011;56125;52.242;4.756;2023-08-24T09:56:57;5.77;;;3.23;;
69053;SDS011;56125;52.242;4.756;2023-08-24T10:02:00;7.63;;;3.45;;
69053;SDS011;56125;52.242;4.756;2023-08-24T10:07:03;5.33;;;3.10;;
69053;SDS011;56125;52.242;4.756;2023-08-24T10:12:08;5.00;;;3.30;;
69053;SDS011;56125;52.242;4.756;2023-08-24T10:17:11;6.43;;;3.10;;
69053;SDS011;56125;52.242;4.756;2023-08-24T10:22:13;5.82;;;2.88;;
69053;SDS011;56125;52.242;4.756;2023-08-24T10:27:14;5.40;;;3.17;;
69053;SDS011;56125;52.242;4.756;2023-08-24T10:32:19;3.63;;;3.05;;
69053;SDS011;56125;52.242;4.756;2023-08-24T10:37:25;5.17;;;3.43;;
69053;SDS011;56125;52.242;4.756;2023-08-24T10:42:27;5.00;;;3.40;;
69053;SDS011;56125;52.242;4.756;2023-08-24T10:47:28;4.17;;;3.10;;
69053;SDS011;56125;52.242;4.756;2023-08-24T10:52:32;6.00;;;3.83;;
69053;SDS011;56125;52.242;4.756;2023-08-24T10:57:37;4.67;;;3.00;;
69053;SDS011;56125;52.242;4.756;2023-08-24T11:02:46;4.90;;;3.25;;
69053;SDS011;56125;52.242;4.756;2023-08-24T11:08:08;6.60;;;3.00;;
69053;SDS011;56125;52.242;4.756;2023-08-24T11:13:10;3.70;;;2.90;;
69053;SDS011;56125;52.242;4.756;2023-08-24T11:23:22;5.20;;;3.25;;
69053;SDS011;56125;52.242;4.756;2023-08-24T11:28:27;8.47;;;3.67;;
69053;SDS011;56125;52.242;4.756;2023-08-24T11:33:30;4.47;;;3.20;;
69053;SDS011;56125;52.242;4.756;2023-08-24T11:38:39;7.60;;;3.50;;
69053;SDS011;56125;52.242;4.756;2023-08-24T11:43:43;6.68;;;4.38;;
69053;SDS011;56125;52.242;4.756;2023-08-24T11:48:45;5.17;;;4.17;;
69053;SDS011;56125;52.242;4.756;2023-08-24T11:53:46;6.53;;;4.50;;
69053;SDS011;56125;52.242;4.756;2023-08-24T11:58:48;6.33;;;4.70;;
69053;SDS011;56125;52.242;4.756;2023-08-24T12:03:50;6.82;;;4.47;;
69053;SDS011;56125;52.242;4.756;2023-08-24T12:08:52;6.13;;;4.40;;
69053;SDS011;56125;52.242;4.756;2023-08-24T12:13:54;5.97;;;4.45;;
69053;SDS011;56125;52.242;4.756;2023-08-24T12:18:56;8.20;;;3.80;;
69053;SDS011;56125;52.242;4.756;2023-08-24T12:24:04;6.63;;;4.38;;
69053;SDS011;56125;52.242;4.756;2023-08-24T12:29:08;5.77;;;3.67;;
69053;SDS011;56125;52.242;4.756;2023-08-24T12:34:09;8.00;;;4.10;;
69053;SDS011;56125;52.242;4.756;2023-08-24T12:39:11;6.93;;;4.40;;
69053;SDS011;56125;52.242;4.756;2023-08-24T12:44:15;5.25;;;4.28;;
69053;SDS011;56125;52.242;4.756;2023-08-24T12:49:16;5.27;;;3.70;;
69053;SDS011;56125;52.242;4.756;2023-08-24T12:54:17;6.63;;;4.07;;
69053;SDS011;56125;52.242;4.756;2023-08-24T12:59:18;5.17;;;4.07;;
69053;SDS011;56125;52.242;4.756;2023-08-24T13:04:19;5.95;;;4.30;;
69053;SDS011;56125;52.242;4.756;2023-08-24T13:09:20;6.60;;;3.90;;
69053;SDS011;56125;52.242;4.756;2023-08-24T13:14:21;5.15;;;4.07;;
69053;SDS011;56125;52.242;4.756;2023-08-24T13:19:22;6.93;;;4.10;;
69053;SDS011;56125;52.242;4.756;2023-08-24T13:24:23;7.32;;;4.50;;
69053;SDS011;56125;52.242;4.756;2023-08-24T13:29:24;6.33;;;4.00;;
69053;SDS011;56125;52.242;4.756;2023-08-24T13:34:25;8.93;;;4.80;;
69053;SDS011;56125;52.242;4.756;2023-08-24T13:39:27;6.07;;;4.13;;
69053;SDS011;56125;52.242;4.756;2023-08-24T13:44:32;7.22;;;5.30;;
69053;SDS011;56125;52.242;4.756;2023-08-24T13:49:33;7.07;;;4.77;;
69053;SDS011;56125;52.242;4.756;2023-08-24T13:54:34;7.05;;;4.55;;
69053;SDS011;56125;52.242;4.756;2023-08-24T13:59:35;7.73;;;4.20;;
69053;SDS011;56125;52.242;4.756;2023-08-24T14:04:36;6.65;;;4.45;;
69053;SDS011;56125;52.242;4.756;2023-08-24T14:09:38;5.10;;;4.20;;
69053;SDS011;56125;52.242;4.756;2023-08-24T14:14:39;6.68;;;4.68;;
69053;SDS011;56125;52.242;4.756;2023-08-24T14:19:40;8.70;;;4.70;;
69053;SDS011;56125;52.242;4.756;2023-08-24T14:24:41;7.55;;;4.93;;
69053;SDS011;56125;52.242;4.756;2023-08-24T14:29:42;9.47;;;5.73;;
69053;SDS011;56125;52.242;4.756;2023-08-24T14:34:43;6.55;;;5.20;;
69053;SDS011;56125;52.242;4.756;2023-08-24T14:39:44;8.33;;;4.83;;
69053;SDS011;56125;52.242;4.756;2023-08-24T14:44:45;7.85;;;5.45;;
69053;SDS011;56125;52.242;4.756;2023-08-24T14:49:46;5.97;;;4.43;;
69053;SDS011;56125;52.242;4.756;2023-08-24T14:54:47;6.80;;;4.60;;
69053;SDS011;56125;52.242;4.756;2023-08-24T14:59:48;6.83;;;4.80;;
69053;SDS011;56125;52.242;4.756;2023-08-24T15:04:50;8.02;;;5.65;;
69053;SDS011;56125;52.242;4.756;2023-08-24T15:09:51;6.87;;;4.97;;
69053;SDS011;56125;52.242;4.756;2023-08-24T15:14:58;6.68;;;5.15;;
69053;SDS011;56125;52.242;4.756;2023-08-24T15:20:01;6.70;;;4.70;;
69053;SDS011;56125;52.242;4.756;2023-08-24T15:25:06;6.95;;;5.18;;
69053;SDS011;56125;52.242;4.756;2023-08-24T15:30:07;7.03;;;5.23;;
69053;SDS011;56125;52.242;4.756;2023-08-24T15:35:08;8.80;;;5.70;;
69053;SDS011;56125;52.242;4.756;2023-08-24T15:40:10;7.47;;;5.37;;
69053;SDS011;56125;52.242;4.756;2023-08-24T15:45:11;8.38;;;5.80;;
69053;SDS011;56125;52.242;4.756;2023-08-24T15:50:12;8.03;;;5.60;;
69053;SDS011;56125;52.242;4.756;2023-08-24T15:55:13;8.80;;;5.82;;
69053;SDS011;56125;52.242;4.756;2023-08-24T16:00:14;10.80;;;5.30;;
69053;SDS011;56125;52.242;4.756;2023-08-24T16:05:15;10.07;;;6.32;;
69053;SDS011;56125;52.242;4.756;2023-08-24T16:10:16;9.33;;;5.83;;
69053;SDS011;56125;52.242;4.756;2023-08-24T16:15:17;9.57;;;6.38;;
69053;SDS011;56125;52.242;4.756;2023-08-24T16:20:18;9.63;;;6.30;;
69053;SDS011;56125;52.242;4.756;2023-08-24T16:25:19;10.65;;;6.78;;
69053;SDS011;56125;52.242;4.756;2023-08-24T16:30:20;11.57;;;6.93;;
69053;SDS011;56125;52.242;4.756;2023-08-24T16:35:21;8.98;;;6.80;;
69053;SDS011;56125;52.242;4.756;2023-08-24T16:40:22;9.50;;;6.23;;
69053;SDS011;56125;52.242;4.756;2023-08-24T16:45:23;6.93;;;5.45;;
69053;SDS011;56125;52.242;4.756;2023-08-24T16:50:24;6.73;;;5.17;;
69053;SDS011;56125;52.242;4.756;2023-08-24T16:55:25;7.38;;;5.15;;
69053;SDS011;56125;52.242;4.756;2023-08-24T17:00:27;6.97;;;4.93;;
69053;SDS011;56125;52.242;4.756;2023-08-24T17:05:28;5.70;;;4.68;;
69053;SDS011;56125;52.242;4.756;2023-08-24T17:10:29;7.60;;;4.80;;
69053;SDS011;56125;52.242;4.756;2023-08-24T17:15:31;5.45;;;4.10;;
69053;SDS011;56125;52.242;4.756;2023-08-24T17:20:35;5.53;;;3.93;;
69053;SDS011;56125;52.242;4.756;2023-08-24T17:25:44;5.15;;;3.67;;
69053;SDS011;56125;52.242;4.756;2023-08-24T17:30:46;4.47;;;3.30;;
69053;SDS011;56125;52.242;4.756;2023-08-24T17:35:47;6.40;;;3.47;;
69053;SDS011;56125;52.242;4.756;2023-08-24T17:40:49;4.77;;;3.37;;
69053;SDS011;56125;52.242;4.756;2023-08-24T17:45:50;4.50;;;3.40;;
69053;SDS011;56125;52.242;4.756;2023-08-24T17:50:54;5.60;;;3.87;;
69053;SDS011;56125;52.242;4.756;2023-08-24T17:55:56;3.72;;;3.00;;
69053;SDS011;56125;52.242;4.756;2023-08-24T18:00:58;4.27;;;3.17;;
69053;SDS011;56125;52.242;4.756;2023-08-24T18:05:59;4.90;;;3.00;;
69053;SDS011;56125;52.242;4.756;2023-08-24T18:11:01;3.50;;;2.90;;
69053;SDS011;56125;52.242;4.756;2023-08-24T18:16:03;6.68;;;2.95;;
69053;SDS011;56125;52.242;4.756;2023-08-24T18:21:04;4.03;;;2.50;;
69053;SDS011;56125;52.242;4.756;2023-08-24T18:26:05;6.63;;;2.95;;
69053;SDS011;56125;52.242;4.756;2023-08-24T18:31:07;7.23;;;2.50;;
69053;SDS011;56125;52.242;4.756;2023-08-24T18:36:08;3.55;;;2.72;;
69053;SDS011;56125;52.242;4.756;2023-08-24T18:41:09;3.83;;;2.77;;
69053;SDS011;56125;52.242;4.756;2023-08-24T18:46:10;7.18;;;2.92;;
69053;SDS011;56125;52.242;4.756;2023-08-24T18:51:11;3.93;;;3.13;;
69053;SDS011;56125;52.242;4.756;2023-08-24T18:56:12;4.03;;;2.60;;
69053;SDS011;56125;52.242;4.756;2023-08-24T19:01:13;4.33;;;2.97;;
69053;SDS011;56125;52.242;4.756;2023-08-24T19:06:14;4.57;;;3.13;;
69053;SDS011;56125;52.242;4.756;2023-08-24T19:11:16;3.20;;;2.63;;
69053;SDS011;56125;52.242;4.756;2023-08-24T19:16:17;4.63;;;2.65;;
69053;SDS011;56125;52.242;4.756;2023-08-24T19:21:18;3.80;;;2.60;;
69053;SDS011;56125;52.242;4.756;2023-08-24T19:26:19;4.85;;;2.97;;
69053;SDS011;56125;52.242;4.756;2023-08-24T19:31:20;5.00;;;2.80;;
69053;SDS011;56125;52.242;4.756;2023-08-24T19:36:21;7.88;;;2.95;;
69053;SDS011;56125;52.242;4.756;2023-08-24T19:41:22;5.40;;;3.10;;
69053;SDS011;56125;52.242;4.756;2023-08-24T19:46:25;3.88;;;2.75;;
69053;SDS011;56125;52.242;4.756;2023-08-24T19:51:29;8.63;;;3.00;;
69053;SDS011;56125;52.242;4.756;2023-08-24T19:56:30;6.07;;;3.20;;
69053;SDS011;56125;52.242;4.756;2023-08-24T20:01:31;3.60;;;2.97;;
69053;SDS011;56125;52.242;4.756;2023-08-24T20:06:32;5.60;;;2.90;;
69053;SDS011;56125;52.242;4.756;2023-08-24T20:11:33;5.17;;;3.50;;
69053;SDS011;56125;52.242;4.756;2023-08-24T20:16:34;5.68;;;3.13;;
69053;SDS011;56125;52.242;4.756;2023-08-24T20:21:35;7.27;;;3.63;;
69053;SDS011;56125;52.242;4.756;2023-08-24T20:26:36;7.97;;;4.00;;
69053;SDS011;56125;52.242;4.756;2023-08-24T20:31:37;4.53;;;3.70;;
69053;SDS011;56125;52.242;4.756;2023-08-24T20:36:38;7.10;;;4.15;;
69053;SDS011;56125;52.242;4.756;2023-08-24T20:41:39;6.77;;;4.43;;
69053;SDS011;56125;52.242;4.756;2023-08-24T20:46:43;6.80;;;5.55;;
69053;SDS011;56125;52.242;4.756;2023-08-24T20:51:45;7.23;;;4.97;;
69053;SDS011;56125;52.242;4.756;2023-08-24T20:56:46;6.93;;;4.97;;
69053;SDS011;56125;52.242;4.756;2023-08-24T21:01:47;9.13;;;5.47;;
69053;SDS011;56125;52.242;4.756;2023-08-24T21:06:48;10.57;;;4.97;;
69053;SDS011;56125;52.242;4.756;2023-08-24T21:11:49;7.90;;;5.30;;
69053;SDS011;56125;52.242;4.756;2023-08-24T21:16:50;8.38;;;4.32;;
69053;SDS011;56125;52.242;4.756;2023-08-24T21:21:51;6.63;;;4.13;;
69053;SDS011;56125;52.242;4.756;2023-08-24T21:26:52;6.63;;;4.32;;
69053;SDS011;56125;52.242;4.756;2023-08-24T21:31:53;6.33;;;4.67;;
69053;SDS011;56125;52.242;4.756;2023-08-24T21:36:54;7.45;;;4.43;;
69053;SDS011;56125;52.242;4.756;2023-08-24T21:41:55;7.33;;;4.53;;
69053;SDS011;56125;52.242;4.756;2023-08-24T21:46:56;5.93;;;4.57;;
69053;SDS011;56125;52.242;4.756;2023-08-24T21:51:57;7.97;;;4.97;;
69053;SDS011;56125;52.242;4.756;2023-08-24T21:56:58;8.35;;;5.03;;
69053;SDS011;56125;52.242;4.756;2023-08-24T22:01:59;7.57;;;5.27;;
69053;SDS011;56125;52.242;4.756;2023-08-24T22:07:00;8.60;;;5.35;;
69053;SDS011;56125;52.242;4.756;2023-08-24T22:12:01;9.43;;;5.57;;
69053;SDS011;56125;52.242;4.756;2023-08-24T22:17:03;10.32;;;6.18;;
69053;SDS011;56125;52.242;4.756;2023-08-24T22:22:04;8.73;;;5.77;;
69053;SDS011;56125;52.242;4.756;2023-08-24T22:27:05;8.18;;;6.13;;
69053;SDS011;56125;52.242;4.756;2023-08-24T22:32:06;8.60;;;5.80;;
69053;SDS011;56125;52.242;4.756;2023-08-24T22:37:09;9.30;;;6.28;;
69053;SDS011;56125;52.242;4.756;2023-08-24T22:42:11;7.93;;;5.70;;
69053;SDS011;56125;52.242;4.756;2023-08-24T22:47:12;8.32;;;5.95;;
69053;SDS011;56125;52.242;4.756;2023-08-24T22:52:13;10.40;;;6.60;;
69053;SDS011;56125;52.242;4.756;2023-08-24T22:57:14;8.57;;;6.38;;
69053;SDS011;56125;52.242;4.756;2023-08-24T23:02:16;8.50;;;6.60;;
69053;SDS011;56125;52.242;4.756;2023-08-24T23:07:17;8.68;;;5.53;;
69053;SDS011;56125;52.242;4.756;2023-08-24T23:12:20;9.77;;;6.30;;
69053;SDS011;56125;52.242;4.756;2023-08-24T23:17:21;12.93;;;7.25;;
69053;SDS011;56125;52.242;4.756;2023-08-24T23:22:25;8.30;;;6.43;;
69053;SDS011;56125;52.242;4.756;2023-08-24T23:27:26;9.93;;;7.05;;
69053;SDS011;56125;52.242;4.756;2023-08-24T23:32:28;9.87;;;7.47;;
69053;SDS011;56125;52.242;4.756;2023-08-24T23:37:29;10.43;;;7.22;;
69053;SDS011;56125;52.242;4.756;2023-08-24T23:42:30;12.80;;;7.20;;
69053;SDS011;56125;52.242;4.756;2023-08-24T23:47:31;10.98;;;7.50;;
69053;SDS011;56125;52.242;4.756;2023-08-24T23:52:32;10.47;;;6.20;;
69053;SDS011;56125;52.242;4.756;2023-08-24T23:57:34;10.05;;;6.13;;
